createdAt,value
2022-09-13T16:07:12.866Z,99949.31
2022-09-13T16:09:41.736Z,99953.28
2022-09-13T16:12:09.507Z,99959.59
2022-09-13T16:14:37.428Z,99967.03
2022-09-13T16:17:07.985Z,99960.34
2022-09-13T16:19:35.902Z,99957.84
2022-09-13T16:22:03.500Z,99946.97
2022-09-13T16:24:32.418Z,99943.13
2022-09-13T16:27:00.755Z,99944.38
2022-09-13T16:29:28.382Z,99942.19
2022-09-13T16:31:57.548Z,99943.59
2022-09-13T16:34:25.116Z,99951.94
2022-09-13T16:36:52.898Z,99956.63
2022-09-13T16:39:20.838Z,99944.63
2022-09-13T16:41:49.723Z,99932.22
2022-09-13T16:44:17.823Z,99951.13
2022-09-13T16:46:45.940Z,99939.59
2022-09-13T16:49:13.803Z,99936.72
2022-09-13T16:51:41.324Z,99944.69
2022-09-13T16:54:08.962Z,99936.56
2022-09-13T16:56:36.470Z,99945.88
2022-09-13T16:59:05.355Z,99953.75
2022-09-13T17:01:33.006Z,99946.34
2022-09-13T17:04:00.656Z,99943.13
2022-09-13T17:06:28.580Z,99968.44
2022-09-13T17:08:57.641Z,99949.47
2022-09-13T17:11:27.640Z,99951.91
2022-09-13T17:13:56.053Z,99954.66
2022-09-13T17:16:28.012Z,99962.81
2022-09-13T17:18:57.145Z,99957.56
2022-09-13T17:21:25.270Z,99947.25
2022-09-13T17:23:53.287Z,99961.09
2022-09-13T17:26:21.262Z,99965.63
2022-09-13T17:28:48.949Z,99983.56
2022-09-13T17:31:17.694Z,99983.34
2022-09-13T17:33:46.858Z,99965.41
2022-09-13T17:36:18.667Z,99985.31
2022-09-13T17:38:46.398Z,99971.31
2022-09-13T17:41:15.250Z,99981.91
2022-09-13T17:43:43.655Z,99981.22
2022-09-13T17:46:12.807Z,99987.69
2022-09-13T17:48:40.939Z,99990.00
2022-09-13T17:51:12.723Z,99978.66
2022-09-13T17:53:41.635Z,99987.16
2022-09-13T17:56:09.338Z,99981.41
2022-09-13T17:58:37.314Z,99983.53
2022-09-13T18:01:06.483Z,99983.28
2022-09-13T18:03:34.990Z,99993.41
2022-09-13T18:06:03.119Z,99981.66
2022-09-13T18:08:34.414Z,99985.28
2022-09-13T18:11:13.332Z,99989.13
2022-09-13T18:13:43.273Z,99990.25
2022-09-13T18:16:15.093Z,99985.66
2022-09-13T18:18:46.150Z,99971.53
2022-09-13T18:21:16.667Z,99981.88
2022-09-13T18:23:46.808Z,99983.09
2022-09-13T18:26:15.850Z,99983.31
2022-09-13T18:28:44.166Z,99977.00
2022-09-13T18:31:14.120Z,99978.47
2022-09-13T18:33:41.795Z,99975.13
2022-09-13T18:36:12.267Z,99968.59
2022-09-13T18:38:41.692Z,99976.97
2022-09-13T18:41:16.810Z,99974.78
2022-09-13T18:43:45.966Z,99979.97
2022-09-13T18:46:15.305Z,99968.66
2022-09-13T18:48:44.471Z,99983.16
2022-09-13T18:51:14.157Z,99975.59
2022-09-13T18:53:41.954Z,99974.06
2022-09-13T18:56:12.540Z,99982.00
2022-09-13T18:58:41.430Z,99986.34
2022-09-13T19:01:11.231Z,99978.41
2022-09-13T19:03:40.281Z,99984.38
2022-09-13T19:06:12.816Z,99990.34
2022-09-13T19:08:40.402Z,99996.56
2022-09-13T19:11:23.798Z,99987.97
2022-09-13T19:13:57.980Z,99988.00
2022-09-13T19:16:26.369Z,99997.28
2022-09-13T19:18:54.055Z,99987.59
2022-09-13T19:21:24.392Z,99996.78
2022-09-13T19:24:00.052Z,99994.69
2022-09-13T19:26:30.887Z,99995.28
2022-09-13T19:29:04.424Z,99989.84
2022-09-13T19:31:33.178Z,99986.03
2022-09-13T19:34:02.242Z,99987.13
2022-09-13T19:36:34.269Z,99995.00
2022-09-13T19:39:02.530Z,99994.78
2022-09-13T19:41:30.836Z,99992.06
2022-09-13T19:44:01.625Z,99994.50
2022-09-13T19:46:31.916Z,99992.63
2022-09-13T19:49:00.648Z,99994.50
2022-09-13T19:51:29.711Z,99992.59
2022-09-13T19:53:58.591Z,99996.66
2022-09-13T19:56:28.200Z,99992.06
2022-09-13T19:58:55.996Z,99991.28
2022-09-13T20:01:26.498Z,99996.44
2022-09-13T20:03:55.614Z,99994.84
2022-09-13T20:06:24.197Z,99990.25
2022-09-13T20:08:52.186Z,99985.59
2022-09-13T20:11:20.841Z,99993.75
2022-09-13T20:13:49.080Z,99994.56
2022-09-13T20:16:19.298Z,100001.63
2022-09-13T20:18:48.706Z,99998.63
2022-09-13T20:21:17.525Z,99996.72
2022-09-13T20:23:45.879Z,99994.84
2022-09-13T20:26:15.348Z,99996.97
2022-09-13T20:28:43.073Z,99998.00
2022-09-13T20:31:12.842Z,99989.13
2022-09-13T20:33:40.915Z,100001.78
2022-09-13T20:36:11.852Z,99993.19
2022-09-13T20:38:39.982Z,99995.06
2022-09-13T20:41:08.559Z,99993.19
2022-09-13T20:43:37.478Z,99994.75
2022-09-13T20:46:06.422Z,99994.75
2022-09-13T20:48:34.668Z,99985.00
2022-09-13T20:51:05.156Z,99993.66
2022-09-13T20:53:34.291Z,99997.44
2022-09-13T20:56:03.680Z,99991.19
2022-09-13T20:58:31.462Z,99984.97
2022-09-13T21:01:03.958Z,99989.84
2022-09-13T21:03:31.850Z,99992.22
2022-09-13T21:06:01.459Z,99983.88
2022-09-13T21:08:41.115Z,99989.84
2022-09-13T21:11:12.888Z,99992.81
2022-09-13T21:13:43.283Z,99982.56
2022-09-13T21:16:12.573Z,99982.53
2022-09-13T21:18:41.057Z,99982.78
2022-09-13T21:21:09.605Z,99990.88
2022-09-13T21:23:40.334Z,99990.06
2022-09-13T21:26:12.506Z,99989.25
2022-09-13T21:28:42.656Z,99999.75
2022-09-13T21:31:13.166Z,99994.06
2022-09-13T21:33:42.157Z,99982.75
2022-09-13T21:36:11.637Z,99983.63
2022-09-13T21:38:39.751Z,99980.63
2022-09-13T21:41:11.326Z,99983.34
2022-09-13T21:43:40.549Z,99981.22
2022-09-13T21:46:13.085Z,99994.72
2022-09-13T21:48:40.776Z,100002.56
2022-09-13T21:51:11.187Z,99998.00
2022-09-13T21:53:40.101Z,99981.25
2022-09-13T21:56:08.981Z,99986.09
2022-09-13T21:58:37.951Z,99987.19
2022-09-13T22:01:09.805Z,99973.38
2022-09-13T22:03:39.082Z,99977.97
2022-09-13T22:06:07.806Z,99977.44
2022-09-13T22:08:38.482Z,99984.44
2022-09-13T22:11:07.646Z,99982.28
2022-09-13T22:13:35.472Z,99982.81
2022-09-13T22:16:10.035Z,99992.00
2022-09-13T22:18:37.732Z,99997.09
2022-09-13T22:21:07.052Z,99988.69
2022-09-13T22:23:35.648Z,99994.69
2022-09-13T22:26:05.932Z,99983.28
2022-09-13T22:28:33.642Z,99975.75
2022-09-13T22:31:06.578Z,99973.06
2022-09-13T22:33:36.200Z,99967.66
2022-09-13T22:36:05.684Z,99971.44
2022-09-13T22:38:33.897Z,99969.56
2022-09-13T22:41:03.548Z,99968.47
2022-09-13T22:43:31.260Z,99969.03
2022-09-13T22:46:03.533Z,99972.25
2022-09-13T22:48:31.428Z,99974.44
2022-09-13T22:51:00.551Z,99964.41
2022-09-13T22:53:28.623Z,99960.91
2022-09-13T22:55:56.223Z,99951.97
2022-09-13T22:58:24.554Z,99958.19
2022-09-13T23:00:52.190Z,99967.06
2022-09-13T23:03:19.759Z,99964.94
2022-09-13T23:05:56.008Z,99956.00
2022-09-13T23:08:25.312Z,99959.56
2022-09-13T23:10:53.176Z,99961.97
2022-09-13T23:13:20.772Z,99955.72
2022-09-13T23:15:48.483Z,99960.06
2022-09-13T23:18:16.006Z,99977.34
2022-09-13T23:20:43.665Z,99967.06
2022-09-13T23:23:12.097Z,99960.91
2022-09-13T23:25:40.958Z,99974.66
2022-09-13T23:28:09.018Z,99959.25
2022-09-13T23:30:36.559Z,99953.00
2022-09-13T23:33:04.136Z,99947.56
2022-09-13T23:35:31.689Z,99945.66
2022-09-13T23:37:59.471Z,99939.72
2022-09-13T23:40:27.048Z,99949.16
2022-09-13T23:42:56.063Z,99957.25
2022-09-13T23:45:23.757Z,99940.75
2022-09-13T23:47:51.414Z,99946.44
2022-09-13T23:50:18.986Z,99936.69
2022-09-13T23:52:46.917Z,99937.78
2022-09-13T23:55:14.632Z,99954.69
2022-09-13T23:57:42.205Z,99941.97
